»·PEaware :: CAX550 KSAN-KSBA

CAX550 :: KSAN-KSBA

FLIGHT INFORMATION

Flight Status: Arrived
Operator:
California Airlines (website)
More flights by this operator :: More flights under this callsign
Pilot: Rodolfo A. (68)
Aircraft: GATES LEARJET LEARJET 60
(LJ60)
More flights by this aircraft type
Origin: KSAN San Diego Intl-Lindbergh
United States
Destination: KSBA Santa Barbara Mun
United States
More flights between these airports :: More routes between these airports
Route: MZB293R V27 SXC V208 VTU VTU282R KWANG
File this flight plan on PilotEdge
Remarks: RADIO CALLSIGN CAL AIR 550
Altitude:
(Current/Filed)
10,000ft
Speed:
(Current/Filed)
300kts
Departed: 23-Oct-11 07:38 PM
Arrived: 23-Oct-11 08:26 PM
Distance/Time
Traveled:
167nm/0:48
Distance/Time
To Go:
Arrived

Flight Plot

Page will automatically refresh every two minutes.


Map Options




Map Legend


Flown Route
Filed Route
Departure Airport
Arrival Airport
Navaid (VOR, NDB)
Fix

Horizontal Profiles

Position Reports

Time Latitude Longitude Heading Altitude Ground
Speed
23-Oct-11 19:20 32.730867 -117.191337 28 21ft 0kts
23-Oct-11 19:21 32.730867 -117.191337 28 21ft 0kts
23-Oct-11 19:22 32.730867 -117.191337 28 21ft 0kts
23-Oct-11 19:23 32.730867 -117.191337 28 21ft 0kts
23-Oct-11 19:24 32.730867 -117.191337 28 21ft 0kts
23-Oct-11 19:25 32.730867 -117.191337 28 21ft 0kts
23-Oct-11 19:26 32.730867 -117.191337 28 21ft 0kts
23-Oct-11 19:27 32.730867 -117.191337 28 21ft 0kts
23-Oct-11 19:28 32.730867 -117.191337 28 21ft 0kts
23-Oct-11 19:29 32.732653 -117.190445 62 21ft 9kts
23-Oct-11 19:30 32.732267 -117.188671 103 21ft 6kts
23-Oct-11 19:31 32.731375 -117.184824 105 21ft 17kts
23-Oct-11 19:32 32.730122 -117.179848 105 21ft 10kts
23-Oct-11 19:33 32.729648 -117.177048 60 21ft 0kts
23-Oct-11 19:34 32.732902 -117.187074 284 22ft 152kts
23-Oct-11 19:35 32.762323 -117.250771 302 2156ft 259kts
23-Oct-11 19:36 32.803093 -117.323329 303 5243ft 268kts
23-Oct-11 19:39 32.952468 -117.522134 313 9970ft 315kts
23-Oct-11 19:40 33.011883 -117.599034 309 9970ft 315kts
23-Oct-11 19:41 33.068062 -117.679070 309 9947ft 315kts
23-Oct-11 19:42 33.122108 -117.760663 307 9940ft 313kts
23-Oct-11 19:43 33.175913 -117.841986 307 9940ft 312kts
23-Oct-11 19:44 33.229581 -117.922953 307 9940ft 311kts
23-Oct-11 19:45 33.283129 -118.004219 306 9940ft 311kts
23-Oct-11 19:46 33.335553 -118.086085 306 9940ft 310kts
23-Oct-11 19:47 33.353282 -118.181819 267 9960ft 308kts
23-Oct-11 19:48 33.357891 -118.283788 279 9960ft 309kts
23-Oct-11 19:49 33.370968 -118.385743 279 9959ft 310kts
23-Oct-11 19:50 33.412963 -118.473298 310 9960ft 310kts
23-Oct-11 19:51 33.468630 -118.552367 310 9959ft 310kts
23-Oct-11 19:52 33.523341 -118.630976 310 9960ft 311kts
23-Oct-11 19:53 33.578839 -118.710410 310 9960ft 311kts
23-Oct-11 19:54 33.634422 -118.790040 310 9989ft 311kts
23-Oct-11 19:55 33.685555 -118.863441 310 9990ft 311kts
23-Oct-11 19:56 33.740774 -118.942876 310 9990ft 311kts
23-Oct-11 19:58 33.843526 -119.108471 304 9979ft 311kts
23-Oct-11 19:59 33.893507 -119.194132 304 9979ft 313kts
23-Oct-11 20:00 33.943391 -119.279780 304 9980ft 315kts
23-Oct-11 20:01 33.993370 -119.365993 304 9307ft 312kts
23-Oct-11 20:02 34.039340 -119.445047 305 8275ft 268kts
23-Oct-11 20:03 34.081665 -119.518252 305 7970ft 266kts
23-Oct-11 20:04 34.123222 -119.591172 304 7986ft 267kts
23-Oct-11 20:05 34.165202 -119.665059 304 7989ft 267kts
23-Oct-11 20:06 34.207281 -119.739068 304 7464ft 266kts
23-Oct-11 20:07 34.248498 -119.811556 304 5965ft 259kts
23-Oct-11 20:08 34.278134 -119.887695 284 4454ft 234kts
23-Oct-11 20:09 34.291871 -119.956641 284 2921ft 205kts
23-Oct-11 20:10 34.305169 -120.023194 284 1997ft 202kts
23-Oct-11 20:11 34.318418 -120.089299 284 1994ft 202kts
23-Oct-11 20:12 34.364716 -120.110708 354 2006ft 182kts
23-Oct-11 20:13 34.407170 -120.091906 63 2018ft 187kts
23-Oct-11 20:14 34.420721 -120.031280 83 2010ft 188kts
23-Oct-11 20:15 34.424123 -119.976889 87 1951ft 139kts
23-Oct-11 20:16 34.425537 -119.934453 87 1320ft 124kts
23-Oct-11 20:17 34.426576 -119.892880 84 675ft 122kts
23-Oct-11 20:18 34.427449 -119.851478 87 28ft 122kts
23-Oct-11 20:22 34.423476 -119.835664 72 17ft 0kts

Navigation Log

Ident Type
Flight plan parsing failed, navigation log unavailable